White Lake Township, MI

10:31 AM EST on December 25, 2014 (GMT -0500)
White Lake, MI | Change Station
CLOSE
Current Station
Personal Weather Station
Location: White Lake Township, MI
Elevation: 1050 ft
Nearby Weather Stations

Elev 1050 ft 42.67 °N, 83.50 °W | Updated 1 minute ago

Overcast
Overcast
35.6 °F
Feels Like 32 °F
N
4.0
Wind Variable Wind from West
Gusts 8.0 mph

Today
High -- | Low -- °F
--% Chance of Precip.
Yesterday
High -- | Low -- °F
Precip. -- in
8:02 AM 5:05 PM
Waxing Crescent, 17% visible
Pressure 29.86 in
Visibility 10.0 miles
Clouds Mostly Cloudy 2000 ft
Overcast 2600 ft
Windchill 32 °F
Dew Point 32 °F
Humidity 88%
Rainfall 0.17 in
Snow Depth Not available.
UV 0 out of 12
Pollen .10 out of 12
Air Quality Not available.
Flu Activity Not available.
METAR KPTK 251453Z 26013G20KT 10SM -RA BKN020 OVC026 02/00 A2983 RMK AO2 RAE03B53 SLP110 P0000 60000 T00220000 51044 $

More Conditions Fewer Conditions

Pressure 29.86 in
Visibility 10.0 miles
Clouds Mostly Cloudy 2000 ft
Overcast 2600 ft
Windchill 32 °F
Dew Point 32 °F
Humidity 88%
Rainfall 0.17 in
Snow Depth Not available.
UV 0 out of 12
Pollen .10 out of 12
Air Quality Not available.
Flu Activity Not available.
METAR KPTK 251453Z 26013G20KT 10SM -RA BKN020 OVC026 02/00 A2983 RMK AO2 RAE03B53 SLP110 P0000 60000 T00220000 51044 $

More Conditions Fewer Conditions

10-Day Weather Forecast

Almanac

Astronomy

Dec. 25, 2014 Rise Set
Actual Time
Civil Twilight
Nautical Twilight
Astronomical Twilight
Moon
Length of Visible Light
Length of Day
Tomorrow will be .
, % of the Moon is Illuminated

Today's Extremes

State Highs State Lows

Community

WunderPhotos

Upload Photos

1,780,313 photos uploaded!

WunderBlogs® & News

Nearby

Air Quality

  Air Quality AQ Index Pollutant
Not available.

Snow Depth

Station Depth Elevation

Earthquake Activity

City Distance Mag. Time & Date
Minimum magnitude displayed is 2.5.

Coastal Water Temperatures

Place Temperature

Nearby Weather Stations